메인 페이지
METAR-TAF:

METAR-TAF

공항 :

라로통가 국제공항

Rarotonga, 쿡 제도

위도: 21-12S, 경도: 159-49W, 고도: 7m

현재 날씨관측

예보는 30분 전, 17:00시(UTC)에 발표되었습니다.
5kt
온도 21°C
습도 83%
기압 1017 hPa
시정 10km 이상
고도 1500ft 상공 구름 보통
고도 4500ft 상공 흐림

METAR: NCRG 171700Z 10005KT 9999 SCT015 OVC045 21/18 Q1017

시각: 07:30 (17:30 UTC)

예보

예보는 6 시간 20분 전, 11:10시(UTC)에 발표되었습니다.
예보 대상 시간: 17일 12시부터 18일 12시까지 (UTC)
10kt
시정 10km 이상
고도 2200ft 상공 구름 보통
고도 4500ft 상공 구름 많음

TAF: NCRG 171110Z 1712/1812 10010KT 9999 SCT022 BKN045

4,000개 이상의 공항 관측 자료 및 예보 (METAR 및 TAF 보고).

지도상에서 검색 가능한 기상관측소가 노란 점과 빨간 점으로 표시되어 있습니다.

기상관측소 명을 보려면 표시 위로 마우스를 이동하세요.

날씨 관측과 예보를 보려면 클릭하세요.

지도 변경 : 확대하려면 엑스 표시가 있는 녹색 버튼, 축소하려면 빼기 표시가 있는 녹색 버튼, 다음 페이지의 지도를 보려면 녹색 화살표를 클릭하세요.


METAR-TAF: